createdAt,value
2019-04-04T00:00:30.776Z,93.70
2019-04-04T00:01:59.624Z,93.50
2019-04-04T00:03:33.556Z,93.40
2019-04-04T00:04:59.201Z,93.30
2019-04-04T00:06:28.084Z,93.20
2019-04-04T00:07:53.669Z,93.30
2019-04-04T00:09:19.423Z,93.20
2019-04-04T00:10:47.251Z,93.20
2019-04-04T00:12:13.007Z,93.20
2019-04-04T00:13:40.088Z,93.20
2019-04-04T00:15:06.164Z,93.10
2019-04-04T00:16:31.661Z,93.10
2019-04-04T00:17:57.174Z,93.20
2019-04-04T00:19:22.653Z,93.40
2019-04-04T00:20:48.172Z,93.50
2019-04-04T00:22:13.586Z,93.60
2019-04-04T00:23:39.158Z,93.70
2019-04-04T00:25:05.247Z,93.90
2019-04-04T00:26:30.771Z,94.00
2019-04-04T00:27:56.273Z,94.10
2019-04-04T00:29:21.771Z,94.30
2019-04-04T00:30:48.396Z,94.30
2019-04-04T00:32:14.422Z,94.40
2019-04-04T00:33:39.872Z,94.60
2019-04-04T00:35:05.828Z,94.70
2019-04-04T00:36:33.883Z,94.80
2019-04-04T00:37:58.464Z,95.10
2019-04-04T00:39:23.939Z,95.50
2019-04-04T00:40:49.451Z,95.70
2019-04-04T00:42:15.011Z,95.80
2019-04-04T00:43:42.011Z,95.70
2019-04-04T00:45:08.005Z,95.50
2019-04-04T00:46:33.662Z,95.40
2019-04-04T00:47:59.127Z,95.20
2019-04-04T00:49:24.632Z,95.00
2019-04-04T00:50:50.128Z,94.70
2019-04-04T00:52:15.675Z,94.20
2019-04-04T00:53:42.997Z,94.10
2019-04-04T00:55:09.768Z,94.00
2019-04-04T00:56:35.324Z,93.90
2019-04-04T00:58:00.842Z,93.80
2019-04-04T00:59:26.314Z,93.80
2019-04-04T01:00:52.956Z,93.90
2019-04-04T01:02:18.988Z,94.00
2019-04-04T01:03:44.491Z,93.70
2019-04-04T01:05:10.629Z,93.20
2019-04-04T01:06:36.108Z,93.10
2019-04-04T01:08:01.745Z,92.90
2019-04-04T01:09:27.228Z,92.60
2019-04-04T01:10:52.696Z,92.30
2019-04-04T01:12:21.424Z,92.10
2019-04-04T01:13:45.615Z,91.90
2019-04-04T01:15:11.405Z,91.60
2019-04-04T01:16:36.928Z,91.40
2019-04-04T01:18:04.020Z,91.40
2019-04-04T01:19:29.519Z,91.20
2019-04-04T01:20:55.040Z,91.20
2019-04-04T01:22:20.541Z,91.30
2019-04-04T01:23:46.056Z,91.10
2019-04-04T01:25:11.741Z,90.90
2019-04-04T01:26:37.264Z,90.90
2019-04-04T01:28:02.759Z,90.90
2019-04-04T01:29:28.237Z,90.90
2019-04-04T01:30:53.804Z,90.90
2019-04-04T01:32:19.461Z,90.90
2019-04-04T01:33:44.955Z,90.90
2019-04-04T01:35:10.614Z,91.00
2019-04-04T01:36:36.216Z,91.10
2019-04-04T01:38:08.065Z,91.20
2019-04-04T01:39:33.585Z,91.30
2019-04-04T01:40:59.223Z,91.50
2019-04-04T01:42:27.499Z,91.60
2019-04-04T01:44:04.597Z,91.90
2019-04-04T01:45:20.171Z,91.90
2019-04-04T01:46:45.991Z,92.10
2019-04-04T01:48:12.825Z,92.20
2019-04-04T01:49:38.291Z,92.20
2019-04-04T01:51:03.787Z,92.20
2019-04-04T01:52:29.434Z,92.10
2019-04-04T01:53:55.112Z,91.80
2019-04-04T01:55:20.678Z,91.80
2019-04-04T01:56:46.158Z,91.80
2019-04-04T01:58:11.760Z,91.90
2019-04-04T01:59:37.224Z,91.80
2019-04-04T02:01:05.352Z,91.80
2019-04-04T02:02:30.796Z,92.20
2019-04-04T02:03:57.426Z,91.80
2019-04-04T02:05:24.943Z,91.80
2019-04-04T02:06:50.470Z,91.70
2019-04-04T02:08:16.131Z,91.70
2019-04-04T02:09:43.464Z,91.60
2019-04-04T02:11:10.820Z,91.50
2019-04-04T02:12:38.519Z,91.40
2019-04-04T02:14:03.405Z,91.40
2019-04-04T02:15:30.280Z,91.50
2019-04-04T02:16:57.065Z,91.70
2019-04-04T02:18:24.023Z,91.90
2019-04-04T02:19:51.181Z,92.10
2019-04-04T02:21:16.685Z,92.30
2019-04-04T02:22:42.148Z,92.60
2019-04-04T02:24:07.627Z,92.80
2019-04-04T02:25:34.854Z,92.80
2019-04-04T02:27:00.475Z,93.10
2019-04-04T02:28:27.289Z,93.50
2019-04-04T02:29:52.800Z,93.70
2019-04-04T02:31:20.743Z,93.80
2019-04-04T02:32:45.578Z,94.10
2019-04-04T02:34:11.053Z,94.30
2019-04-04T02:35:36.594Z,94.60
2019-04-04T02:37:02.035Z,95.10
2019-04-04T02:38:28.309Z,95.30
2019-04-04T02:39:54.436Z,95.30
2019-04-04T02:41:21.441Z,95.40
2019-04-04T02:42:46.956Z,95.50
2019-04-04T02:44:12.558Z,95.50
2019-04-04T02:45:39.081Z,95.90
2019-04-04T02:47:05.897Z,95.90
2019-04-04T02:48:31.448Z,95.90
2019-04-04T02:50:00.673Z,96.00
2019-04-04T02:51:24.032Z,96.10
2019-04-04T02:52:49.495Z,96.00
2019-04-04T02:54:15.147Z,94.90
2019-04-04T02:55:43.657Z,93.30
2019-04-04T02:57:09.572Z,92.10
2019-04-04T02:58:35.835Z,92.10
2019-04-04T03:00:01.692Z,91.90
2019-04-04T03:01:27.152Z,92.10
2019-04-04T03:02:52.610Z,92.20
2019-04-04T03:04:18.239Z,92.40
2019-04-04T03:05:43.849Z,92.70
2019-04-04T03:07:12.485Z,92.90
2019-04-04T03:08:38.071Z,93.20
2019-04-04T03:10:03.790Z,93.20
2019-04-04T03:11:30.508Z,93.10
2019-04-04T03:12:58.475Z,92.60
2019-04-04T03:14:23.307Z,92.70
2019-04-04T03:15:51.971Z,92.90
2019-04-04T03:17:17.469Z,93.00
2019-04-04T03:18:42.951Z,93.30
2019-04-04T03:20:08.928Z,93.80
2019-04-04T03:21:35.709Z,94.10
2019-04-04T03:23:01.504Z,94.20
2019-04-04T03:24:27.506Z,94.30
2019-04-04T03:25:54.596Z,94.70
2019-04-04T03:27:25.634Z,94.70
2019-04-04T03:28:48.748Z,94.80
2019-04-04T03:30:17.050Z,94.70
2019-04-04T03:31:41.548Z,94.70
2019-04-04T03:33:07.029Z,94.70
2019-04-04T03:34:32.532Z,94.80
2019-04-04T03:36:01.027Z,94.90
2019-04-04T03:37:25.159Z,94.90
2019-04-04T03:38:50.676Z,94.90
2019-04-04T03:40:16.485Z,94.90
2019-04-04T03:41:42.291Z,95.00
2019-04-04T03:43:09.322Z,94.90
2019-04-04T03:44:36.097Z,94.80
2019-04-04T03:46:01.807Z,94.90
2019-04-04T03:47:27.406Z,94.90
2019-04-04T03:48:54.020Z,94.90
2019-04-04T03:50:19.570Z,95.00
2019-04-04T03:51:45.155Z,94.90
2019-04-04T03:53:10.666Z,94.90
2019-04-04T03:54:36.144Z,94.90
2019-04-04T03:56:01.696Z,94.80
2019-04-04T03:57:27.266Z,94.70
2019-04-04T03:58:52.787Z,94.60
2019-04-04T04:00:28.796Z,94.40
2019-04-04T04:01:54.273Z,94.20
2019-04-04T04:03:22.246Z,94.00
2019-04-04T04:04:46.884Z,93.90
2019-04-04T04:06:12.414Z,93.90
2019-04-04T04:07:37.909Z,93.90
2019-04-04T04:09:04.861Z,93.80
2019-04-04T04:10:33.288Z,93.80
2019-04-04T04:11:57.610Z,93.70
2019-04-04T04:13:26.156Z,93.80
2019-04-04T04:14:54.931Z,93.80
2019-04-04T04:16:18.647Z,93.90
2019-04-04T04:17:45.503Z,93.90
2019-04-04T04:19:11.439Z,93.90
2019-04-04T04:20:37.915Z,93.90
2019-04-04T04:22:04.259Z,93.90
2019-04-04T04:23:29.775Z,93.90
2019-04-04T04:24:55.279Z,94.00
2019-04-04T04:26:20.812Z,94.00
2019-04-04T04:27:48.404Z,94.00
2019-04-04T04:29:13.356Z,94.00
2019-04-04T04:30:40.546Z,94.00
2019-04-04T04:32:05.914Z,94.00
2019-04-04T04:33:31.389Z,94.00
2019-04-04T04:34:56.993Z,94.00
2019-04-04T04:36:23.870Z,94.00
2019-04-04T04:37:53.370Z,93.90
2019-04-04T04:39:17.958Z,94.00
2019-04-04T04:40:46.830Z,94.00
2019-04-04T04:42:10.544Z,94.20
2019-04-04T04:43:36.017Z,93.90
2019-04-04T04:45:01.504Z,93.90
2019-04-04T04:46:26.977Z,93.90
2019-04-04T04:47:55.931Z,93.90
2019-04-04T04:49:23.188Z,93.90
2019-04-04T04:50:47.094Z,93.90
2019-04-04T04:52:15.154Z,93.90
2019-04-04T04:53:39.837Z,93.80
2019-04-04T04:55:05.497Z,93.80
2019-04-04T04:56:31.870Z,93.70
2019-04-04T04:57:57.519Z,93.60
2019-04-04T04:59:23.056Z,93.50
2019-04-04T05:00:48.642Z,93.20
2019-04-04T05:02:14.201Z,93.10
2019-04-04T05:03:39.784Z,92.90
2019-04-04T05:05:05.772Z,92.70
2019-04-04T05:06:31.279Z,92.50
2019-04-04T05:07:56.787Z,92.20
2019-04-04T05:09:22.258Z,91.90
2019-04-04T05:10:47.738Z,91.70
2019-04-04T05:12:13.245Z,91.50
2019-04-04T05:13:38.816Z,91.20
2019-04-04T05:15:06.024Z,91.20
2019-04-04T05:16:31.556Z,91.20
2019-04-04T05:17:57.468Z,91.10
2019-04-04T05:19:23.119Z,91.10
2019-04-04T05:20:48.885Z,91.20
2019-04-04T05:22:14.410Z,91.30
2019-04-04T05:23:39.900Z,91.30
2019-04-04T05:25:08.288Z,91.50
2019-04-04T05:26:34.483Z,91.80
2019-04-04T05:28:00.258Z,92.30
2019-04-04T05:29:29.748Z,92.60
2019-04-04T05:30:56.900Z,93.10
2019-04-04T05:32:22.558Z,93.80
2019-04-04T05:33:48.080Z,94.00
2019-04-04T05:35:15.363Z,94.00
2019-04-04T05:36:42.128Z,94.40
2019-04-04T05:38:07.945Z,94.60
2019-04-04T05:39:34.294Z,94.60
2019-04-04T05:40:59.891Z,94.90
2019-04-04T05:42:25.485Z,95.40
2019-04-04T05:43:52.282Z,95.20
2019-04-04T05:45:17.835Z,95.10
2019-04-04T05:46:44.772Z,95.20
2019-04-04T05:48:11.605Z,95.30
2019-04-04T05:49:39.064Z,95.20
2019-04-04T05:51:04.522Z,95.40
2019-04-04T05:52:30.454Z,95.60
2019-04-04T05:53:57.212Z,95.60
2019-04-04T05:55:22.706Z,95.60
2019-04-04T05:56:48.962Z,95.70
2019-04-04T05:58:15.278Z,95.60
2019-04-04T05:59:42.299Z,95.50
2019-04-04T06:01:09.303Z,95.40
2019-04-04T06:02:34.819Z,95.30
2019-04-04T06:04:00.296Z,95.20
2019-04-04T06:05:27.213Z,95.20
2019-04-04T06:06:55.395Z,94.60
2019-04-04T06:08:20.003Z,94.50
2019-04-04T06:09:46.852Z,94.30
2019-04-04T06:11:12.623Z,94.00
2019-04-04T06:12:38.096Z,93.80
2019-04-04T06:14:03.706Z,93.50
2019-04-04T06:15:30.066Z,93.20
2019-04-04T06:16:56.641Z,93.40
2019-04-04T06:18:22.205Z,92.90
2019-04-04T06:19:47.789Z,92.80
2019-04-04T06:21:18.498Z,92.60
2019-04-04T06:22:43.511Z,92.30
2019-04-04T06:24:09.033Z,92.10
2019-04-04T06:25:35.745Z,91.80
2019-04-04T06:27:01.575Z,91.60
2019-04-04T06:28:27.019Z,91.40
2019-04-04T06:29:52.579Z,91.40
2019-04-04T06:31:18.100Z,91.30
2019-04-04T06:32:43.580Z,91.10
2019-04-04T06:34:10.478Z,91.20
2019-04-04T06:35:39.512Z,91.00
2019-04-04T06:37:03.814Z,90.50
2019-04-04T06:38:29.458Z,90.60
2019-04-04T06:39:58.585Z,90.70
2019-04-04T06:41:22.041Z,90.70
2019-04-04T06:42:47.586Z,90.70
2019-04-04T06:44:13.635Z,90.70
2019-04-04T06:45:39.306Z,90.50
2019-04-04T06:47:04.817Z,90.60
2019-04-04T06:48:33.477Z,90.70
2019-04-04T06:49:57.504Z,90.80
2019-04-04T06:51:23.072Z,90.70
2019-04-04T06:52:50.425Z,90.80
2019-04-04T06:54:15.810Z,90.80
2019-04-04T06:55:41.370Z,90.90
2019-04-04T06:57:06.838Z,90.90
2019-04-04T06:58:32.287Z,90.90
2019-04-04T06:59:57.797Z,90.90
2019-04-04T07:01:25.326Z,90.90
2019-04-04T07:02:50.357Z,91.00
2019-04-04T07:04:17.326Z,91.00
2019-04-04T07:05:42.994Z,91.00
2019-04-04T07:07:08.450Z,91.10
2019-04-04T07:08:33.904Z,91.10
2019-04-04T07:09:59.410Z,91.20
2019-04-04T07:11:24.992Z,91.30
2019-04-04T07:12:50.452Z,91.40
2019-04-04T07:14:15.944Z,91.50
2019-04-04T07:15:48.375Z,91.50
2019-04-04T07:17:09.377Z,91.60
2019-04-04T07:18:35.005Z,91.60
2019-04-04T07:20:00.545Z,91.60
2019-04-04T07:21:26.035Z,91.60
2019-04-04T07:22:51.500Z,91.60
2019-04-04T07:24:16.974Z,91.60
2019-04-04T07:25:42.496Z,91.60
2019-04-04T07:27:08.010Z,91.70
2019-04-04T07:28:33.440Z,91.70
2019-04-04T07:29:58.891Z,91.60
2019-04-04T07:31:24.496Z,91.60
2019-04-04T07:32:49.971Z,91.60
2019-04-04T07:34:15.424Z,91.60
2019-04-04T07:35:40.990Z,91.50
2019-04-04T07:37:06.448Z,91.40
2019-04-04T07:38:34.867Z,91.50
2019-04-04T07:39:59.053Z,91.50
2019-04-04T07:41:24.648Z,91.40
2019-04-04T07:42:50.230Z,91.50
2019-04-04T07:44:15.700Z,91.40
2019-04-04T07:45:41.173Z,91.40
2019-04-04T07:47:06.671Z,91.20
2019-04-04T07:48:32.371Z,91.10
2019-04-04T07:49:57.854Z,91.10
2019-04-04T07:51:23.383Z,91.10
2019-04-04T07:52:48.864Z,91.10
2019-04-04T07:54:14.310Z,91.10
2019-04-04T07:55:40.103Z,91.10
2019-04-04T07:57:06.960Z,91.10
2019-04-04T07:58:32.395Z,90.90
2019-04-04T07:59:57.872Z,91.00
2019-04-04T08:01:23.371Z,90.90
2019-04-04T08:02:48.883Z,91.00
2019-04-04T08:04:14.312Z,91.20
2019-04-04T08:05:39.771Z,90.80
2019-04-04T08:07:05.239Z,90.60
2019-04-04T08:08:30.679Z,90.60
2019-04-04T08:09:56.124Z,90.60
2019-04-04T08:11:21.587Z,90.40
2019-04-04T08:12:47.015Z,90.10
2019-04-04T08:14:12.461Z,90.10
2019-04-04T08:15:37.982Z,89.90
2019-04-04T08:17:03.619Z,89.80
2019-04-04T08:18:29.073Z,89.70
2019-04-04T08:19:59.790Z,89.30
2019-04-04T08:21:21.740Z,89.20
2019-04-04T08:22:47.371Z,89.10
2019-04-04T08:24:12.835Z,89.10
2019-04-04T08:25:38.266Z,88.90
2019-04-04T08:27:03.708Z,88.50
2019-04-04T08:28:29.199Z,88.40
2019-04-04T08:29:54.736Z,88.20
2019-04-04T08:31:20.185Z,88.10
2019-04-04T08:32:45.659Z,88.00
2019-04-04T08:34:11.119Z,88.10
2019-04-04T08:35:36.715Z,88.20
2019-04-04T08:37:02.296Z,88.00
2019-04-04T08:38:27.795Z,88.20
2019-04-04T08:39:53.268Z,88.20
2019-04-04T08:41:18.817Z,88.10
2019-04-04T08:42:44.280Z,88.20
2019-04-04T08:44:09.932Z,87.50
2019-04-04T08:45:35.495Z,88.10
2019-04-04T08:47:01.270Z,88.10
2019-04-04T08:48:26.776Z,87.90
2019-04-04T08:49:52.171Z,87.70
2019-04-04T08:51:17.616Z,87.50
2019-04-04T08:52:43.199Z,87.60
2019-04-04T08:54:08.944Z,87.40
2019-04-04T08:55:34.628Z,87.40
2019-04-04T08:57:00.177Z,87.30
2019-04-04T08:58:25.712Z,87.10
2019-04-04T08:59:51.136Z,86.90
2019-04-04T09:01:16.604Z,86.00
2019-04-04T09:02:42.083Z,85.60
2019-04-04T09:04:07.561Z,86.10
2019-04-04T09:05:33.000Z,85.80
2019-04-04T09:06:58.601Z,85.80
2019-04-04T09:08:24.042Z,85.80
2019-04-04T09:09:49.590Z,85.30
2019-04-04T09:11:15.169Z,84.80
2019-04-04T09:12:40.631Z,84.90
2019-04-04T09:14:06.471Z,84.90
2019-04-04T09:15:32.093Z,85.00
2019-04-04T09:16:57.510Z,84.70
2019-04-04T09:18:22.996Z,84.60
2019-04-04T09:19:48.439Z,84.40
2019-04-04T09:21:13.914Z,84.20
2019-04-04T09:22:40.943Z,84.20
2019-04-04T09:24:06.698Z,84.30
2019-04-04T09:25:32.126Z,83.90
2019-04-04T09:26:57.542Z,83.80
2019-04-04T09:28:23.063Z,83.50
2019-04-04T09:29:48.524Z,83.30
2019-04-04T09:31:13.997Z,83.00
2019-04-04T09:32:39.698Z,82.70
2019-04-04T09:34:05.475Z,82.70
2019-04-04T09:35:30.943Z,82.70
2019-04-04T09:36:56.488Z,82.60
2019-04-04T09:38:21.949Z,82.60
2019-04-04T09:39:47.419Z,82.80
2019-04-04T09:41:12.926Z,82.70
2019-04-04T09:42:38.442Z,82.10
2019-04-04T09:44:06.003Z,82.10
2019-04-04T09:45:31.016Z,82.00
2019-04-04T09:47:05.335Z,82.10
2019-04-04T09:48:23.602Z,82.70
2019-04-04T09:49:49.041Z,81.50
2019-04-04T09:51:14.636Z,81.60
2019-04-04T09:52:40.256Z,81.80
2019-04-04T09:54:05.968Z,81.20
2019-04-04T09:55:31.454Z,81.10
2019-04-04T09:56:56.989Z,81.50
2019-04-04T09:58:22.444Z,81.70
2019-04-04T09:59:47.951Z,81.20
2019-04-04T10:01:13.621Z,80.90
2019-04-04T10:02:39.279Z,80.80
2019-04-04T10:04:04.814Z,80.00
2019-04-04T10:05:30.341Z,80.60
2019-04-04T10:06:55.812Z,80.30
2019-04-04T10:08:21.696Z,80.10
2019-04-04T10:09:47.247Z,79.70
2019-04-04T10:11:12.936Z,78.90
2019-04-04T10:12:38.410Z,78.80
2019-04-04T10:14:04.323Z,79.00
2019-04-04T10:15:29.979Z,79.00
2019-04-04T10:16:55.462Z,78.50
2019-04-04T10:18:20.892Z,78.40
2019-04-04T10:19:46.371Z,78.40
2019-04-04T10:21:12.548Z,77.80
2019-04-04T10:22:38.324Z,77.50
2019-04-04T10:24:03.805Z,77.90
2019-04-04T10:25:29.257Z,77.80
2019-04-04T10:26:54.704Z,77.80
2019-04-04T10:28:23.110Z,77.60
2019-04-04T10:29:47.278Z,77.20
2019-04-04T10:31:12.923Z,76.20
2019-04-04T10:32:38.466Z,76.50
2019-04-04T10:34:03.920Z,75.60
2019-04-04T10:35:29.407Z,75.00
2019-04-04T10:36:54.859Z,75.00
2019-04-04T10:38:20.314Z,73.70
2019-04-04T10:39:45.760Z,73.70
2019-04-04T10:41:11.251Z,73.20
2019-04-04T10:42:36.874Z,72.50
2019-04-04T10:44:02.352Z,72.10
2019-04-04T10:45:27.937Z,71.70
2019-04-04T10:46:53.447Z,71.30
2019-04-04T10:48:18.854Z,71.60
2019-04-04T10:49:44.301Z,71.00
2019-04-04T10:51:09.847Z,70.20
2019-04-04T10:52:35.445Z,70.20
2019-04-04T10:54:00.941Z,69.20
2019-04-04T10:55:26.419Z,69.70
2019-04-04T10:56:52.477Z,69.20
2019-04-04T10:58:17.920Z,69.00
2019-04-04T10:59:43.425Z,68.80
2019-04-04T11:01:09.092Z,68.80
2019-04-04T11:02:34.593Z,68.20
2019-04-04T11:04:00.088Z,68.20
2019-04-04T11:05:25.509Z,67.50
2019-04-04T11:06:50.926Z,67.70
2019-04-04T11:08:16.379Z,67.30
2019-04-04T11:09:42.497Z,67.10
2019-04-04T11:11:08.163Z,66.80
2019-04-04T11:12:34.436Z,66.50
2019-04-04T11:14:00.008Z,67.50
2019-04-04T11:15:25.432Z,66.40
2019-04-04T11:16:50.921Z,66.60
2019-04-04T11:18:16.375Z,65.80
2019-04-04T11:19:43.367Z,66.80
2019-04-04T11:21:09.130Z,66.30
2019-04-04T11:22:34.616Z,66.40
2019-04-04T11:24:00.129Z,66.80
2019-04-04T11:25:25.567Z,67.00
2019-04-04T11:26:51.119Z,66.90
2019-04-04T11:28:16.568Z,66.00
2019-04-04T11:29:42.056Z,66.90
2019-04-04T11:31:07.567Z,67.30
2019-04-04T11:32:33.081Z,67.30
2019-04-04T11:33:58.535Z,66.90
2019-04-04T11:35:24.030Z,67.20
2019-04-04T11:36:49.513Z,67.30
2019-04-04T11:38:14.982Z,67.30
2019-04-04T11:39:40.431Z,66.80
2019-04-04T11:41:05.980Z,67.10
2019-04-04T11:42:31.568Z,67.00
2019-04-04T11:43:57.187Z,66.60
2019-04-04T11:45:22.734Z,67.10
2019-04-04T11:46:48.324Z,67.20
2019-04-04T11:48:13.824Z,66.70
2019-04-04T11:49:39.310Z,66.90
2019-04-04T11:51:04.995Z,67.20
2019-04-04T11:52:30.571Z,67.20
2019-04-04T11:53:56.006Z,67.00
2019-04-04T11:55:21.490Z,67.30
2019-04-04T11:56:47.526Z,67.30
2019-04-04T11:58:13.064Z,67.20
2019-04-04T11:59:38.636Z,66.90
2019-04-04T12:01:06.295Z,67.20
2019-04-04T12:02:32.734Z,67.50
2019-04-04T12:03:58.449Z,68.50
2019-04-04T12:05:24.009Z,68.60
2019-04-04T12:06:49.534Z,68.70
2019-04-04T12:08:14.996Z,68.90
2019-04-04T12:09:40.540Z,69.10
2019-04-04T12:11:06.047Z,69.50
2019-04-04T12:12:31.526Z,69.80
2019-04-04T12:13:56.984Z,69.90
2019-04-04T12:15:22.422Z,69.70
2019-04-04T12:16:47.877Z,69.10
2019-04-04T12:18:13.366Z,69.10
2019-04-04T12:19:38.822Z,69.10
2019-04-04T12:21:04.320Z,69.30
2019-04-04T12:22:29.863Z,69.80
2019-04-04T12:23:55.472Z,68.90
2019-04-04T12:25:20.977Z,68.80
2019-04-04T12:26:46.524Z,69.10
2019-04-04T12:28:12.035Z,69.30
2019-04-04T12:29:37.600Z,69.60
2019-04-04T12:31:03.032Z,69.70
2019-04-04T12:32:28.512Z,69.80
2019-04-04T12:33:53.999Z,69.70
2019-04-04T12:35:19.662Z,69.50
2019-04-04T12:36:45.112Z,69.50
2019-04-04T12:38:10.590Z,69.00
2019-04-04T12:39:36.081Z,68.50
2019-04-04T12:41:01.580Z,68.50
2019-04-04T12:42:27.155Z,68.40
2019-04-04T12:43:52.662Z,67.90
2019-04-04T12:45:18.503Z,67.80
2019-04-04T12:46:43.940Z,66.80
2019-04-04T12:48:09.415Z,67.00
2019-04-04T12:49:34.827Z,67.00
2019-04-04T12:51:00.299Z,67.20
2019-04-04T12:52:25.822Z,67.50
2019-04-04T12:53:51.339Z,67.20
2019-04-04T12:55:16.808Z,67.30
2019-04-04T12:56:42.281Z,66.90
2019-04-04T12:58:10.579Z,66.20
2019-04-04T12:59:36.641Z,64.90
2019-04-04T13:01:02.182Z,64.90
2019-04-04T13:02:27.667Z,65.40
2019-04-04T13:03:53.209Z,66.60
2019-04-04T13:05:18.780Z,67.10
2019-04-04T13:06:44.310Z,68.00
2019-04-04T13:08:10.811Z,68.20
2019-04-04T13:09:36.821Z,68.60
2019-04-04T13:11:09.968Z,69.20
2019-04-04T13:12:35.542Z,69.40
2019-04-04T13:14:01.044Z,70.00
2019-04-04T13:15:27.586Z,69.00
2019-04-04T13:16:53.170Z,69.10
2019-04-04T13:18:20.288Z,70.10
2019-04-04T13:19:51.782Z,70.80
2019-04-04T13:21:17.368Z,71.30
2019-04-04T13:22:43.119Z,71.80
2019-04-04T13:24:08.921Z,71.70
2019-04-04T13:25:34.994Z,72.10
2019-04-04T13:27:01.021Z,72.80
2019-04-04T13:28:26.576Z,73.00
2019-04-04T13:29:52.275Z,73.00
2019-04-04T13:31:17.866Z,73.10
2019-04-04T13:32:43.452Z,73.10
2019-04-04T13:34:08.967Z,72.80
2019-04-04T13:35:37.668Z,73.60
2019-04-04T13:37:01.657Z,74.40
2019-04-04T13:38:29.720Z,74.40
2019-04-04T13:39:54.779Z,74.30
2019-04-04T13:41:22.137Z,73.80
2019-04-04T13:42:47.635Z,73.70
2019-04-04T13:44:13.127Z,73.70
2019-04-04T13:45:39.286Z,74.00
2019-04-04T13:47:04.849Z,74.00
2019-04-04T13:48:30.587Z,73.90
2019-04-04T13:49:56.603Z,73.50
2019-04-04T13:51:22.308Z,73.30
2019-04-04T13:52:47.730Z,73.50
2019-04-04T13:54:13.386Z,74.60
2019-04-04T13:55:41.679Z,75.30
2019-04-04T13:57:07.375Z,75.40
2019-04-04T13:58:33.056Z,76.50
2019-04-04T13:59:58.864Z,77.20
2019-04-04T14:01:25.499Z,77.70
2019-04-04T14:02:51.183Z,78.00
2019-04-04T14:04:20.408Z,78.20
2019-04-04T14:05:46.183Z,77.80
2019-04-04T14:07:12.072Z,77.70
2019-04-04T14:08:39.521Z,78.20
2019-04-04T14:10:05.438Z,77.90
2019-04-04T14:11:30.964Z,78.40
2019-04-04T14:12:56.559Z,78.50
2019-04-04T14:14:22.151Z,77.80
2019-04-04T14:15:47.741Z,78.00
2019-04-04T14:17:13.297Z,77.70
2019-04-04T14:18:40.040Z,77.70
2019-04-04T14:20:06.272Z,77.90
2019-04-04T14:21:53.362Z,78.10
2019-04-04T14:23:19.495Z,77.80
2019-04-04T14:24:46.035Z,78.10
2019-04-04T14:26:11.672Z,78.00
2019-04-04T14:27:37.392Z,77.60
2019-04-04T14:29:04.608Z,77.50
2019-04-04T14:30:49.499Z,78.10
2019-04-04T14:32:15.200Z,78.10
2019-04-04T14:33:43.889Z,78.30
2019-04-04T14:35:10.372Z,78.50
2019-04-04T14:36:38.850Z,78.60
2019-04-04T14:38:04.443Z,78.70
2019-04-04T14:39:29.986Z,78.50
2019-04-04T14:40:55.596Z,78.20
2019-04-04T14:42:21.038Z,78.30
2019-04-04T14:43:48.204Z,78.20
2019-04-04T14:45:13.847Z,77.80
2019-04-04T14:46:39.982Z,78.10
2019-04-04T14:48:05.803Z,78.30
2019-04-04T14:49:33.548Z,78.10
2019-04-04T14:50:59.404Z,78.30
2019-04-04T14:52:25.057Z,78.10
2019-04-04T14:53:50.536Z,78.50
2019-04-04T14:55:17.890Z,78.80
2019-04-04T14:56:43.259Z,79.00
2019-04-04T14:58:08.693Z,78.70
2019-04-04T14:59:34.906Z,78.30
2019-04-04T15:01:00.662Z,77.80
2019-04-04T15:02:26.202Z,77.50
2019-04-04T15:03:51.662Z,77.20
2019-04-04T15:05:17.223Z,77.50
2019-04-04T15:06:42.835Z,77.70
2019-04-04T15:08:08.573Z,77.60
2019-04-04T15:09:34.280Z,77.70
2019-04-04T15:10:59.753Z,78.10
2019-04-04T15:12:25.364Z,78.00
2019-04-04T15:13:50.918Z,77.80
2019-04-04T15:15:16.602Z,77.90
2019-04-04T15:16:42.121Z,78.00
2019-04-04T15:18:07.617Z,78.40
2019-04-04T15:19:33.083Z,78.70
2019-04-04T15:20:58.637Z,78.60
2019-04-04T15:22:24.179Z,78.70
2019-04-04T15:23:49.733Z,78.80
2019-04-04T15:25:15.681Z,78.90
2019-04-04T15:26:41.238Z,79.50
2019-04-04T15:28:06.918Z,78.60
2019-04-04T15:29:32.612Z,78.80
2019-04-04T15:30:58.116Z,79.20
2019-04-04T15:32:23.679Z,79.80
2019-04-04T15:33:50.491Z,79.00
2019-04-04T15:35:16.300Z,79.10
2019-04-04T15:36:41.758Z,79.10
2019-04-04T15:38:07.222Z,79.10
2019-04-04T15:39:33.122Z,78.90
2019-04-04T15:40:58.783Z,78.90
2019-04-04T15:42:24.324Z,78.90
2019-04-04T15:43:49.813Z,79.20
2019-04-04T15:45:15.932Z,79.10
2019-04-04T15:46:41.419Z,79.20
2019-04-04T15:48:24.864Z,79.30
2019-04-04T15:49:50.368Z,79.00
2019-04-04T15:51:15.994Z,80.10
2019-04-04T15:52:41.552Z,80.70
2019-04-04T15:54:07.223Z,80.20
2019-04-04T15:55:32.757Z,80.20
2019-04-04T15:56:58.420Z,80.30
2019-04-04T15:58:23.974Z,79.80
2019-04-04T15:59:49.464Z,80.00
2019-04-04T16:01:15.015Z,80.10
2019-04-04T16:02:40.525Z,80.50
2019-04-04T16:04:06.118Z,80.80
2019-04-04T16:05:31.576Z,81.10
2019-04-04T16:06:56.995Z,81.30
2019-04-04T16:08:22.508Z,81.00
2019-04-04T16:09:47.991Z,80.50
2019-04-04T16:11:13.461Z,80.40
2019-04-04T16:12:39.024Z,80.70
2019-04-04T16:14:04.734Z,80.80
2019-04-04T16:15:30.240Z,80.90
2019-04-04T16:16:55.715Z,80.80
2019-04-04T16:18:21.158Z,80.80
2019-04-04T16:19:46.741Z,81.10
2019-04-04T16:21:12.172Z,81.20
2019-04-04T16:22:37.742Z,81.20
2019-04-04T16:24:03.273Z,81.40
2019-04-04T16:25:28.851Z,81.00
2019-04-04T16:26:54.368Z,80.80
2019-04-04T16:28:19.967Z,80.70
2019-04-04T16:29:45.512Z,80.10
2019-04-04T16:31:13.283Z,80.50
2019-04-04T16:32:39.044Z,80.90
2019-04-04T16:34:04.895Z,80.90
2019-04-04T16:35:30.871Z,80.80
2019-04-04T16:36:56.357Z,81.20
2019-04-04T16:38:23.030Z,81.60
2019-04-04T16:39:49.168Z,82.10
2019-04-04T16:41:15.843Z,82.70
2019-04-04T16:42:41.356Z,82.90
2019-04-04T16:44:07.079Z,83.00
2019-04-04T16:45:32.671Z,83.10
2019-04-04T19:38:31.705Z,99.90
2019-04-04T19:40:08.791Z,99.90
2019-04-04T19:41:34.553Z,99.90
2019-04-04T19:43:00.346Z,99.90
2019-04-04T19:44:25.960Z,99.90
2019-04-04T19:45:51.755Z,99.90
2019-04-04T19:47:17.410Z,99.90
2019-04-04T19:48:43.236Z,99.90
2019-04-04T19:50:09.925Z,99.90
2019-04-04T19:51:36.022Z,99.90
2019-04-04T19:53:01.716Z,99.90
2019-04-04T19:54:27.242Z,99.90
2019-04-04T19:55:54.471Z,99.90
2019-04-04T19:57:20.361Z,99.90
2019-04-04T19:58:45.840Z,99.90
2019-04-04T20:00:16.147Z,99.90
2019-04-04T20:01:45.450Z,99.90
2019-04-04T20:03:11.166Z,99.90
2019-04-04T20:04:36.945Z,99.90
2019-04-04T20:06:02.656Z,99.90
2019-04-04T20:07:28.231Z,99.90
2019-04-04T20:08:54.014Z,99.90
2019-04-04T20:10:19.680Z,99.90
2019-04-04T20:11:45.158Z,99.90
2019-04-04T20:13:10.951Z,99.90
2019-04-04T20:14:36.606Z,99.90
2019-04-04T20:16:02.300Z,99.90
2019-04-04T20:17:27.835Z,99.90
2019-04-04T20:18:54.070Z,99.90
2019-04-04T20:20:20.545Z,99.90
2019-04-04T20:21:46.136Z,99.90
2019-04-04T20:23:11.650Z,99.90
2019-04-04T20:24:37.305Z,99.90
2019-04-04T20:26:02.805Z,99.90
2019-04-04T20:27:29.197Z,99.90
2019-04-04T20:28:54.725Z,99.90
2019-04-04T20:30:30.528Z,99.90
2019-04-04T20:31:55.993Z,99.90
2019-04-04T20:33:21.543Z,99.90
2019-04-04T20:34:47.274Z,99.90
2019-04-04T20:36:12.983Z,99.90
2019-04-04T20:37:38.693Z,99.90
2019-04-04T20:39:05.561Z,99.90
2019-04-04T20:40:31.161Z,99.90
2019-04-04T20:41:56.690Z,99.90
2019-04-04T20:43:22.164Z,99.90
2019-04-04T20:44:47.759Z,99.90
2019-04-04T20:46:13.252Z,99.90
2019-04-04T20:47:38.722Z,99.90
2019-04-04T20:49:05.672Z,99.90
2019-04-04T20:50:31.295Z,99.90
2019-04-04T20:51:56.750Z,99.90
2019-04-04T20:53:24.892Z,99.90
2019-04-04T20:54:50.581Z,99.90
2019-04-04T20:56:16.257Z,99.90
